GCLA

La Palma Airport

Sta Cruz de la Palma, La Palma Island, Spain
METAR GCLA 151930Z 34009KT 300V020 9999 FEW030 19/13 Q1025
Observed Flight Rules
Dec-15 @ 19:30 UTC (20 minutes ago) Visual Flight Rules
Wind Visibility Clouds
340° at 9 knots 10,000+ meters
  • Few at 3,000' AGL
Temperatures Readings
Current 19°C / 66°F
Dewpoint 13°C / 55°F
Humidity 68%
Altimeter 30.27" Hg
Pressure 1025 hPa
Elevation 31
METAR GCLA 151930Z 34009KT 300V020 9999 FEW030 19/13 Q1025
Observed Flight Rules
Dec-15 @ 19:30 UTC
(20 minutes ago)
VFR
Wind Visibility
340° at 9 knots 10,000+ meters
Clouds
  • Few at 3,000' AGL
Temperature Dewpoint
19°C / 66°F 13°C / 55°F
Humidity Altimeter Pressure
68% 30.27" Hg 1025 hPa